Pagrindinis puslapis
METAR-TAF:

METAR-TAF

Oro uostai :

Perryton Ochiltree County Airport

Perryton, Teksasas, Jungtinės Amerikos Valstijos

platuma: 36-24N, ilguma: 100-44W, Aukštis: 890 m

Dabartinis oras

Ataskaita buvo paskelbta 12 minutes, ne 10:55 UTC
Ramus vėjas
Temperatūra 12°C
Drėgmė 76%
Slėgis 1024 hPa
Matomumas: 16.1 km
Giedras dangus

METAR: KPYX 291055Z AUTO 00000KT 10SM CLR 12/08 A3024 RMK AO2 T01240080

Laikas: 06:07 (11:07 UTC)


TAF: trūkstamas

Orai ataskaitas ir orų prognozės (METAR, TAF).

turimą stotys yra geltonos ir raudonos taškus žemėlapyje.

Perkelti pele per norėdami pamatyti stoties vardą.

Tada spustelėkite, norėdami matyti oro stebėjimo ir prognozės.

Norėdami pakeisti žemėlapį: spustelėkite ant žalios mygtukų su juodo kryžiaus žemyn,; žalią mygtuką su brūkšneliu, jei norite nutolinti; arba žalių rodyklių gretimoms žemėlapius.


METAR-TAF: